createdAt,value
2023-03-02T00:04:00.149Z,17.39
2023-03-02T00:14:01.464Z,17.39
2023-03-02T00:24:02.716Z,17.41
2023-03-02T00:34:05.284Z,17.33
2023-03-02T00:44:06.574Z,17.37
2023-03-02T00:54:07.870Z,17.37
2023-03-02T01:04:09.118Z,17.36
2023-03-02T01:14:10.405Z,17.41
2023-03-02T01:24:11.664Z,17.44
2023-03-02T01:34:12.914Z,17.47
2023-03-02T01:44:14.190Z,17.50
2023-03-02T01:54:15.466Z,17.52
2023-03-02T02:04:18.297Z,17.53
2023-03-02T02:14:19.623Z,17.58
2023-03-02T02:24:20.868Z,17.62
2023-03-02T02:34:22.125Z,17.65
2023-03-02T02:44:23.380Z,17.69
2023-03-02T02:54:24.736Z,17.68
2023-03-02T03:04:26.125Z,17.74
2023-03-02T03:14:27.397Z,17.72
2023-03-02T03:24:28.690Z,17.74
2023-03-02T03:34:29.943Z,17.80
2023-03-02T03:44:31.198Z,17.82
2023-03-02T03:54:32.454Z,17.80
2023-03-02T04:04:33.722Z,17.89
2023-03-02T04:14:34.965Z,17.90
2023-03-02T04:24:36.218Z,17.92
2023-03-02T04:34:37.460Z,17.93
2023-03-02T04:44:38.725Z,17.96
2023-03-02T04:54:40.014Z,17.97
2023-03-02T05:04:41.334Z,17.98
2023-03-02T05:14:44.318Z,17.98
2023-03-02T05:24:46.927Z,18.01
2023-03-02T05:34:48.164Z,18.08
2023-03-02T05:44:49.413Z,18.04
2023-03-02T05:54:50.637Z,18.00
2023-03-02T06:04:51.907Z,18.03
2023-03-02T06:14:53.207Z,18.04
2023-03-02T06:24:54.485Z,18.10
2023-03-02T06:34:55.737Z,18.15
2023-03-02T06:44:56.981Z,18.17
2023-03-02T06:54:58.259Z,18.18
2023-03-02T07:04:59.532Z,18.20
2023-03-02T07:15:00.809Z,18.20
2023-03-02T07:25:02.040Z,18.19
2023-03-02T07:35:03.291Z,18.22
2023-03-02T07:45:04.534Z,18.25
2023-03-02T07:55:05.814Z,18.31
2023-03-02T08:05:07.091Z,18.43
2023-03-02T08:15:08.341Z,18.47
2023-03-02T08:25:09.601Z,18.47
2023-03-02T08:35:10.889Z,18.45
2023-03-02T08:45:12.202Z,18.46
2023-03-02T08:55:13.477Z,18.45
2023-03-02T09:05:14.769Z,18.40
2023-03-02T09:15:35.657Z,18.39
2023-03-02T09:25:40.557Z,18.37
2023-03-02T09:35:50.993Z,18.35
2023-03-02T09:45:58.573Z,18.38
2023-03-02T09:56:05.120Z,18.39
2023-03-02T10:06:06.841Z,18.39
2023-03-02T10:26:30.170Z,18.35
2023-03-02T10:36:41.809Z,18.38
2023-03-02T10:46:46.880Z,18.37
2023-03-02T10:56:55.334Z,18.37
2023-03-02T11:07:06.982Z,18.36
2023-03-02T11:17:11.553Z,18.35
2023-03-02T11:27:19.750Z,18.34
2023-03-02T11:37:27.910Z,18.32
2023-03-02T11:47:35.143Z,18.33
2023-03-02T11:57:46.181Z,18.32
2023-03-02T12:07:56.787Z,18.37
2023-03-02T12:18:00.711Z,18.36
2023-03-02T12:28:07.783Z,18.35
2023-03-02T12:38:11.212Z,18.37
2023-03-02T12:48:24.444Z,18.40
2023-03-02T12:58:35.821Z,18.42
2023-03-02T13:08:41.544Z,18.41
2023-03-02T13:18:50.606Z,18.42
2023-03-02T13:28:58.620Z,18.44
2023-03-02T13:39:00.457Z,18.45
2023-03-02T13:59:23.821Z,18.43
2023-03-02T14:09:25.687Z,18.45
2023-03-02T14:19:38.591Z,18.45
2023-03-02T14:29:48.640Z,18.48
2023-03-02T14:39:50.594Z,18.50
2023-03-02T15:00:15.644Z,18.47
2023-03-02T15:10:23.597Z,18.50
2023-03-02T15:20:30.941Z,18.50
2023-03-02T15:30:42.303Z,18.51
2023-03-02T15:40:46.672Z,18.47
2023-03-02T15:50:48.581Z,18.41
2023-03-02T16:01:02.692Z,18.35
2023-03-02T16:11:13.271Z,18.32
2023-03-02T16:21:20.595Z,18.31
2023-03-02T16:31:29.709Z,18.26
2023-03-02T16:41:37.927Z,18.23
2023-03-02T16:51:45.688Z,18.18
2023-03-02T17:01:53.688Z,18.17
2023-03-02T17:12:01.652Z,18.18
2023-03-02T17:22:13.063Z,18.14
2023-03-02T17:32:14.477Z,18.12
2023-03-02T17:42:15.819Z,18.13
2023-03-02T17:52:17.103Z,18.11
2023-03-02T18:02:18.366Z,18.06
2023-03-02T18:12:19.615Z,18.05
2023-03-02T18:22:20.836Z,18.02
2023-03-02T18:32:22.164Z,18.05
2023-03-02T18:42:23.509Z,17.96
2023-03-02T18:52:24.814Z,17.97
2023-03-02T19:02:26.142Z,17.98
2023-03-02T19:12:27.504Z,18.00
2023-03-02T19:22:28.744Z,17.96
2023-03-02T19:32:30.057Z,17.97
2023-03-02T19:42:31.352Z,17.95
2023-03-02T19:52:32.581Z,17.92
2023-03-02T20:02:33.899Z,17.96
2023-03-02T20:12:35.188Z,17.94
2023-03-02T20:22:36.444Z,17.93
2023-03-02T20:32:37.817Z,17.95
2023-03-02T20:42:39.094Z,17.94
2023-03-02T20:52:40.433Z,17.94
2023-03-02T21:02:41.725Z,17.96
2023-03-02T21:12:44.078Z,17.91
2023-03-02T21:22:45.482Z,17.93
2023-03-02T21:32:48.856Z,17.89
2023-03-02T21:42:50.082Z,17.87
2023-03-02T21:52:51.402Z,17.88
2023-03-02T22:02:52.691Z,17.82
2023-03-02T22:12:53.953Z,17.82
2023-03-02T22:22:55.255Z,17.84
2023-03-02T22:32:56.533Z,17.81
2023-03-02T22:42:57.803Z,17.80
2023-03-02T22:52:59.040Z,17.77
2023-03-02T23:03:00.320Z,17.77
2023-03-02T23:13:01.668Z,17.75
2023-03-02T23:23:02.975Z,17.75
2023-03-02T23:33:04.313Z,17.70
2023-03-02T23:43:05.604Z,17.72
2023-03-02T23:53:06.849Z,17.65
